高雄終端管制區 - 高雄雷達席

METAR RCKH 181030Z 32005KT 290V020 9999 FEW016 SCT050 20/13 Q1018 NOSIG RMK A3006=

站台狀態:Online
最後更新:2020-01-18 19:00:02